Time;durP1;ratioP1;P1;durP2;ratioP2;P2;SDS_P1;SDS_P2;PMS_P1;PMS_P2;Temp;Humidity;BMP_temperature;BMP_pressure;BME280_temperature;BME280_humidity;BME280_pressure;Samples;Min_cycle;Max_cycle;Signal;HPM_P1;HPM_P2
2024/01/04 00:00:29;;;;;;;9.83;3.97;;;8.40;99.90;;;;;;6275051;22;20018;-79
2024/01/04 00:03:04;;;;;;;8.55;3.25;;;8.30;99.90;;;;;;6276537;22;20041;-79
2024/01/04 00:05:31;;;;;;;5.90;3.00;;;8.30;99.90;;;;;;6274757;22;20525;-78
2024/01/04 00:07:58;;;;;;;9.43;2.97;;;8.30;99.90;;;;;;6300990;22;20323;-79
2024/01/04 00:10:29;;;;;;;7.50;2.78;;;8.30;99.90;;;;;;6301067;22;20068;-78
2024/01/04 00:12:58;;;;;;;7.93;2.38;;;8.30;99.90;;;;;;6301474;22;20321;-79
2024/01/04 00:15:27;;;;;;;7.15;2.90;;;8.20;99.90;;;;;;6301478;22;20389;-78
2024/01/04 00:18:03;;;;;;;3.60;2.28;;;8.30;99.90;;;;;;6300685;22;20448;-79
2024/01/04 00:20:44;;;;;;;7.47;2.35;;;8.30;99.90;;;;;;6300045;22;20080;-80
2024/01/04 00:23:13;;;;;;;4.55;2.22;;;8.20;99.90;;;;;;6275438;22;20019;-79
2024/01/04 00:26:00;;;;;;;11.93;2.40;;;8.20;99.90;;;;;;6273159;22;20092;-80
2024/01/04 00:28:27;;;;;;;5.90;2.40;;;8.10;99.90;;;;;;6217306;22;20026;-80
2024/01/04 00:30:54;;;;;;;3.33;1.95;;;8.00;99.90;;;;;;6217641;22;20112;-80
2024/01/04 00:33:21;;;;;;;6.20;2.15;;;8.10;99.90;;;;;;6217512;22;20030;-80
2024/01/04 00:35:46;;;;;;;2.95;1.70;;;8.00;99.90;;;;;;6218012;22;20023;-81
2024/01/04 00:38:12;;;;;;;3.22;1.58;;;8.00;99.90;;;;;;6243233;22;20120;-80
2024/01/04 00:40:39;;;;;;;6.55;1.75;;;8.00;99.90;;;;;;6217810;22;20057;-80
2024/01/04 00:43:05;;;;;;;2.92;1.42;;;8.00;99.90;;;;;;6243173;22;20008;-80
2024/01/04 00:45:36;;;;;;;1.50;1.35;;;7.90;99.90;;;;;;6217692;22;20404;-79
2024/01/04 00:48:07;;;;;;;3.25;1.85;;;7.80;99.90;;;;;;6217932;22;20019;-79
2024/01/04 00:50:32;;;;;;;2.45;1.58;;;7.90;99.90;;;;;;6217708;22;20525;-79
2024/01/04 00:53:08;;;;;;;3.47;1.52;;;7.90;99.90;;;;;;6244965;22;20059;-79
2024/01/04 00:55:39;;;;;;;7.97;1.63;;;7.80;99.90;;;;;;6218529;22;20023;-78
2024/01/04 00:58:09;;;;;;;2.10;1.27;;;7.80;99.90;;;;;;6244212;22;20020;-79
2024/01/04 01:00:45;;;;;;;3.85;1.45;;;7.70;99.90;;;;;;6267635;22;20098;-79
2024/01/04 01:03:16;;;;;;;3.53;1.58;;;7.70;99.90;;;;;;6243194;22;20047;-78
2024/01/04 01:05:44;;;;;;;2.17;1.50;;;7.70;99.90;;;;;;6242933;22;20081;-78
2024/01/04 01:08:11;;;;;;;2.15;1.48;;;7.70;99.90;;;;;;6217727;22;20154;-78
2024/01/04 01:10:37;;;;;;;3.17;1.38;;;7.70;99.90;;;;;;6242837;22;20021;-79
2024/01/04 01:13:04;;;;;;;3.03;1.60;;;7.70;99.90;;;;;;6262917;22;20347;-78
2024/01/04 01:15:30;;;;;;;2.75;1.50;;;7.70;99.90;;;;;;6274869;22;20504;-78
2024/01/04 01:17:56;;;;;;;5.05;1.60;;;7.60;99.90;;;;;;6300154;22;20018;-79
2024/01/04 01:20:27;;;;;;;4.80;1.65;;;7.70;99.90;;;;;;6274549;22;20019;-79
2024/01/04 01:22:53;;;;;;;3.72;1.73;;;7.70;99.90;;;;;;6300240;22;20023;-79
2024/01/04 01:25:29;;;;;;;2.40;1.27;;;7.70;99.90;;;;;;6302002;22;20019;-80
2024/01/04 01:27:58;;;;;;;2.00;1.40;;;7.60;99.90;;;;;;6275373;22;20100;-80
2024/01/04 01:30:37;;;;;;;1.77;1.40;;;7.60;99.90;;;;;;6297397;22;20014;-80
2024/01/04 01:33:28;;;;;;;2.20;1.67;;;7.60;99.90;;;;;;6266333;22;20035;-79
2024/01/04 01:36:18;;;;;;;4.00;1.58;;;7.50;99.90;;;;;;6181812;23;20425;-80
2024/01/04 01:38:48;;;;;;;1.98;1.48;;;7.70;99.90;;;;;;6181945;23;20017;-80
2024/01/04 01:41:15;;;;;;;7.70;2.10;;;7.50;99.90;;;;;;6181520;23;20088;-80
2024/01/04 01:43:41;;;;;;;5.90;1.60;;;7.60;99.90;;;;;;6182121;23;20019;-80
2024/01/04 01:46:19;;;;;;;3.75;1.83;;;7.60;99.90;;;;;;6158655;23;20480;-80
2024/01/04 01:48:44;;;;;;;5.00;1.90;;;7.50;99.90;;;;;;6156899;23;20031;-80
2024/01/04 01:51:17;;;;;;;4.15;1.73;;;7.50;99.90;;;;;;6183331;23;21129;-79
2024/01/04 01:53:44;;;;;;;3.55;2.08;;;7.50;99.90;;;;;;6156430;23;20052;-80
2024/01/04 01:56:11;;;;;;;1.95;1.35;;;7.40;99.90;;;;;;6157138;23;20044;-80
2024/01/04 01:58:43;;;;;;;3.97;1.77;;;7.30;99.90;;;;;;6182238;23;20764;-80
2024/01/04 02:01:14;;;;;;;6.43;1.63;;;7.30;99.90;;;;;;6182439;23;20524;-79
2024/01/04 02:03:40;;;;;;;4.55;1.42;;;7.30;99.90;;;;;;6169293;22;20023;-80
2024/01/04 02:06:33;;;;;;;3.75;2.15;;;7.30;99.90;;;;;;6242124;22;20047;-80
2024/01/04 02:09:01;;;;;;;2.17;1.23;;;7.30;99.90;;;;;;6181530;23;20110;-80
2024/01/04 02:11:28;;;;;;;3.30;1.98;;;7.20;99.90;;;;;;6180596;23;20698;-80
2024/01/04 02:14:18;;;;;;;4.50;1.40;;;7.30;99.90;;;;;;6180239;23;20017;-80
2024/01/04 02:16:45;;;;;;;3.92;1.52;;;7.20;99.90;;;;;;6151406;23;20013;-80
2024/01/04 02:19:23;;;;;;;5.97;1.55;;;7.20;99.90;;;;;;6176593;23;20009;-80
2024/01/04 02:21:55;;;;;;;3.42;1.77;;;7.20;99.90;;;;;;6151115;23;20013;-80
2024/01/04 02:24:25;;;;;;;3.80;1.80;;;7.20;99.90;;;;;;6126714;23;20028;-80
2024/01/04 02:27:11;;;;;;;4.70;1.75;;;7.20;99.90;;;;;;6218573;23;20107;-79
2024/01/04 02:29:43;;;;;;;7.35;2.33;;;7.20;99.90;;;;;;6211323;23;20107;-79
2024/01/04 02:32:16;;;;;;;3.75;1.88;;;7.20;99.90;;;;;;6185583;23;20023;-79
2024/01/04 02:34:49;;;;;;;2.90;1.88;;;7.30;99.90;;;;;;6186021;23;20680;-79
2024/01/04 02:37:34;;;;;;;3.20;1.83;;;7.20;99.90;;;;;;6235675;23;20020;-80
2024/01/04 02:40:08;;;;;;;3.55;1.58;;;7.10;99.90;;;;;;6211306;23;20139;-79
2024/01/04 02:42:34;;;;;;;6.72;2.00;;;7.10;99.90;;;;;;6211373;23;20065;-79
2024/01/04 02:45:00;;;;;;;7.43;2.45;;;7.20;99.90;;;;;;6186007;23;20020;-79
2024/01/04 02:47:26;;;;;;;6.47;1.55;;;7.20;99.90;;;;;;6186024;23;20012;-79
2024/01/04 02:49:52;;;;;;;4.13;1.85;;;7.20;99.90;;;;;;6186244;23;20478;-80
2024/01/04 02:52:19;;;;;;;2.05;1.50;;;7.10;99.90;;;;;;6230465;23;20020;-79
2024/01/04 02:55:09;;;;;;;2.22;1.77;;;7.00;99.90;;;;;;6211484;23;20048;-80
2024/01/04 02:57:40;;;;;;;3.70;1.42;;;7.10;99.90;;;;;;6176179;23;20396;-79
2024/01/04 03:00:12;;;;;;;3.25;1.70;;;7.20;99.90;;;;;;6176645;23;20009;-79
2024/01/04 03:02:38;;;;;;;3.40;1.77;;;7.00;99.90;;;;;;6151770;23;20096;-79
2024/01/04 03:05:07;;;;;;;2.00;1.52;;;7.10;99.90;;;;;;6151345;23;20087;-79
2024/01/04 03:07:35;;;;;;;1.27;1.20;;;7.00;99.90;;;;;;6189501;22;20155;-79
2024/01/04 03:10:01;;;;;;;3.08;1.50;;;6.90;99.90;;;;;;6241802;22;20065;-79
2024/01/04 03:12:27;;;;;;;1.85;1.35;;;7.00;99.90;;;;;;6241320;22;20099;-79
2024/01/04 03:14:53;;;;;;;5.45;1.83;;;7.00;99.90;;;;;;6241615;22;20159;-79
2024/01/04 03:17:18;;;;;;;3.42;1.58;;;7.00;99.90;;;;;;6216255;22;20011;-79
2024/01/04 03:19:44;;;;;;;9.35;3.05;;;7.00;99.90;;;;;;6267521;22;20050;-79
2024/01/04 03:22:10;;;;;;;5.32;1.90;;;7.10;99.90;;;;;;6216136;22;20062;-79
2024/01/04 03:24:35;;;;;;;6.55;1.52;;;7.10;99.90;;;;;;6267424;22;20030;-79
2024/01/04 03:27:01;;;;;;;6.25;1.60;;;7.00;99.90;;;;;;6267328;22;20131;-79
2024/01/04 03:29:27;;;;;;;4.43;1.50;;;7.00;99.90;;;;;;6267409;22;20513;-79
2024/01/04 03:31:52;;;;;;;5.80;1.77;;;7.00;99.90;;;;;;6241966;22;20051;-79
2024/01/04 03:34:18;;;;;;;8.73;2.00;;;7.00;99.90;;;;;;6267169;22;20019;-79
2024/01/04 03:36:44;;;;;;;1.58;1.45;;;6.90;99.90;;;;;;6242068;22;20476;-79
2024/01/04 03:39:09;;;;;;;2.35;1.55;;;6.90;99.90;;;;;;6269146;22;20124;-79
2024/01/04 03:41:35;;;;;;;4.10;1.58;;;6.90;99.90;;;;;;6243213;22;20106;-79
2024/01/04 03:44:00;;;;;;;3.28;1.63;;;6.80;99.90;;;;;;6269369;22;20122;-79
2024/01/04 03:46:26;;;;;;;7.05;1.67;;;6.90;99.90;;;;;;6269476;22;20012;-79
2024/01/04 03:48:52;;;;;;;5.80;1.55;;;6.80;99.90;;;;;;6243900;22;20146;-79
2024/01/04 03:51:17;;;;;;;6.90;2.35;;;6.80;99.90;;;;;;6269589;22;20423;-79
2024/01/04 03:53:43;;;;;;;2.40;1.45;;;6.80;99.90;;;;;;6228752;22;20019;-81
2024/01/04 03:56:09;;;;;;;4.95;2.30;;;6.80;99.90;;;;;;6303960;22;20863;-79
2024/01/04 03:58:35;;;;;;;3.92;1.77;;;6.70;99.90;;;;;;6303611;22;20069;-79
2024/01/04 04:01:02;;;;;;;2.80;1.27;;;6.80;99.90;;;;;;6304063;22;20084;-80
2024/01/04 04:03:28;;;;;;;6.13;1.42;;;6.80;99.90;;;;;;6303918;22;20011;-80
2024/01/04 04:05:54;;;;;;;3.20;1.45;;;6.80;99.90;;;;;;6301550;22;20331;-80
2024/01/04 04:08:19;;;;;;;10.77;2.05;;;6.80;99.90;;;;;;6303400;22;20018;-80
2024/01/04 04:10:45;;;;;;;6.90;1.70;;;6.90;99.90;;;;;;6303160;22;20011;-80
2024/01/04 04:13:12;;;;;;;6.55;2.78;;;6.90;99.90;;;;;;6303116;22;20130;-79
2024/01/04 04:15:37;;;;;;;3.63;1.70;;;6.90;99.90;;;;;;6303883;22;20015;-80
2024/01/04 04:18:03;;;;;;;3.53;1.40;;;6.90;99.90;;;;;;6275670;22;20022;-80
2024/01/04 04:20:29;;;;;;;3.60;1.67;;;6.80;99.90;;;;;;6303375;22;20440;-80
2024/01/04 04:22:55;;;;;;;3.22;1.60;;;6.80;99.90;;;;;;6303601;22;20336;-80
2024/01/04 04:25:21;;;;;;;4.25;1.92;;;6.80;99.90;;;;;;6301380;22;20036;-79
2024/01/04 04:27:47;;;;;;;3.17;1.52;;;6.80;99.90;;;;;;6275931;22;20065;-80
2024/01/04 04:30:13;;;;;;;8.18;1.67;;;6.90;99.90;;;;;;6301461;22;20123;-80
2024/01/04 04:32:38;;;;;;;1.65;1.20;;;6.80;99.90;;;;;;6303747;22;20090;-80
2024/01/04 04:35:04;;;;;;;6.43;1.38;;;6.80;99.90;;;;;;6301466;22;20135;-80
2024/01/04 04:37:30;;;;;;;2.85;1.38;;;6.90;99.90;;;;;;6301420;22;20114;-80
2024/01/04 04:39:56;;;;;;;3.80;1.60;;;6.80;99.90;;;;;;6301162;22;20015;-80
2024/01/04 04:42:21;;;;;;;4.15;1.75;;;6.80;99.90;;;;;;6301741;22;20047;-79
2024/01/04 04:44:47;;;;;;;5.82;1.63;;;6.80;99.90;;;;;;6304059;22;20560;-79
2024/01/04 04:47:13;;;;;;;3.80;1.52;;;6.70;99.90;;;;;;6303725;22;20121;-81
2024/01/04 04:49:38;;;;;;;2.90;1.55;;;6.70;99.90;;;;;;6302620;22;20012;-81
2024/01/04 04:52:04;;;;;;;5.75;1.50;;;6.80;99.90;;;;;;6302990;22;20049;-81
2024/01/04 04:54:30;;;;;;;3.67;1.40;;;6.60;99.90;;;;;;6300119;22;20017;-81
2024/01/04 04:56:56;;;;;;;2.75;1.75;;;6.70;99.90;;;;;;6302922;22;20015;-81
2024/01/04 04:59:22;;;;;;;2.42;1.25;;;6.80;99.90;;;;;;6300474;22;20083;-81
2024/01/04 05:01:48;;;;;;;1.70;1.10;;;6.80;99.90;;;;;;6300635;22;20054;-81
2024/01/04 05:04:13;;;;;;;6.43;1.25;;;6.70;99.90;;;;;;6299975;22;20019;-81
2024/01/04 05:06:39;;;;;;;3.75;1.40;;;6.80;99.90;;;;;;6300841;22;20320;-81
2024/01/04 05:09:07;;;;;;;2.40;1.30;;;6.60;99.90;;;;;;6302418;22;20019;-82
2024/01/04 05:11:32;;;;;;;1.65;1.10;;;6.80;99.90;;;;;;6300605;22;20356;-81
2024/01/04 05:13:58;;;;;;;3.05;1.67;;;6.70;99.90;;;;;;6300448;22;20019;-81
2024/01/04 05:16:24;;;;;;;3.50;1.33;;;6.70;99.90;;;;;;6300551;22;20011;-81
2024/01/04 05:18:49;;;;;;;4.30;2.08;;;6.70;99.90;;;;;;6300575;22;20029;-81
2024/01/04 05:21:15;;;;;;;4.15;1.70;;;6.80;99.90;;;;;;6300079;22;20065;-81
2024/01/04 05:23:41;;;;;;;1.92;1.10;;;6.70;99.90;;;;;;6274341;22;20054;-81
2024/01/04 05:26:06;;;;;;;3.60;1.17;;;6.70;99.90;;;;;;6300519;22;20039;-81
2024/01/04 05:28:32;;;;;;;3.92;1.20;;;6.70;99.90;;;;;;6300564;22;20093;-81
2024/01/04 05:30:58;;;;;;;3.50;1.33;;;6.70;99.90;;;;;;6274687;22;20019;-81
2024/01/04 05:33:23;;;;;;;4.22;1.10;;;6.70;99.90;;;;;;6274418;22;20348;-81
2024/01/04 05:35:51;;;;;;;5.95;1.42;;;6.80;99.90;;;;;;6300587;22;20026;-81
2024/01/04 05:38:16;;;;;;;3.03;1.73;;;6.50;99.90;;;;;;6300129;22;20017;-81
2024/01/04 05:40:42;;;;;;;3.63;1.30;;;6.60;99.90;;;;;;6300342;22;20126;-81
2024/01/04 05:43:08;;;;;;;7.93;1.90;;;6.60;99.90;;;;;;6274610;22;20094;-81
2024/01/04 05:45:33;;;;;;;4.03;1.92;;;6.50;99.90;;;;;;6274454;22;20093;-81
2024/01/04 05:47:59;;;;;;;2.25;1.27;;;6.60;99.90;;;;;;6300059;22;20106;-81
2024/01/04 05:50:25;;;;;;;3.95;1.33;;;6.70;99.90;;;;;;6274279;22;20015;-81
2024/01/04 05:52:50;;;;;;;4.32;1.73;;;6.60;99.90;;;;;;6299829;22;20344;-81
2024/01/04 05:55:16;;;;;;;3.90;1.45;;;6.70;99.90;;;;;;6300094;22;20093;-81
2024/01/04 05:57:43;;;;;;;3.67;1.60;;;6.60;99.90;;;;;;6300144;22;20061;-81
2024/01/04 06:00:10;;;;;;;4.32;1.30;;;6.50;99.90;;;;;;6274011;22;20008;-81
2024/01/04 06:02:35;;;;;;;3.45;1.30;;;6.50;99.90;;;;;;6299944;22;20022;-82
2024/01/04 06:05:01;;;;;;;3.42;1.45;;;6.50;99.90;;;;;;6274276;22;20023;-80
2024/01/04 06:07:28;;;;;;;5.47;1.38;;;6.50;99.90;;;;;;6299689;22;20019;-81
2024/01/04 06:09:54;;;;;;;2.80;1.30;;;6.40;99.90;;;;;;6300429;22;20015;-81
2024/01/04 06:12:22;;;;;;;3.70;1.20;;;6.40;99.90;;;;;;6274782;22;20011;-80
2024/01/04 06:14:49;;;;;;;2.67;1.30;;;6.30;99.90;;;;;;6300181;22;20061;-81
2024/01/04 06:17:15;;;;;;;1.92;1.30;;;6.40;99.90;;;;;;6300120;22;20015;-81
2024/01/04 06:19:41;;;;;;;5.63;2.08;;;6.50;99.90;;;;;;6274564;22;20320;-80
2024/01/04 06:22:06;;;;;;;6.05;1.30;;;6.40;99.90;;;;;;6273396;22;20011;-80
2024/01/04 06:24:32;;;;;;;4.38;1.27;;;6.40;99.90;;;;;;6300040;22;20019;-81
2024/01/04 06:27:01;;;;;;;4.35;1.33;;;6.50;99.90;;;;;;6300453;22;20338;-80
2024/01/04 06:29:32;;;;;;;3.60;1.40;;;6.50;99.90;;;;;;6274318;22;20019;-81
2024/01/04 06:32:08;;;;;;;4.85;1.20;;;6.40;99.90;;;;;;6299902;22;20041;-80
2024/01/04 06:34:33;;;;;;;3.03;1.48;;;6.50;99.90;;;;;;6274057;22;20018;-80
2024/01/04 06:36:59;;;;;;;3.42;1.10;;;6.40;99.90;;;;;;6273905;22;20011;-80
2024/01/04 06:39:25;;;;;;;5.30;1.30;;;6.40;99.90;;;;;;6299547;22;20343;-80
2024/01/04 06:41:51;;;;;;;5.22;1.20;;;6.50;99.90;;;;;;6299717;22;20015;-80
2024/01/04 06:44:16;;;;;;;2.08;1.17;;;6.40;99.90;;;;;;6299770;22;20122;-79
2024/01/04 06:46:42;;;;;;;1.65;1.30;;;6.50;99.90;;;;;;6301667;22;20402;-82
2024/01/04 06:49:08;;;;;;;3.00;1.73;;;6.50;99.90;;;;;;6299777;22;20034;-82
2024/01/04 06:51:33;;;;;;;5.22;1.48;;;6.40;99.90;;;;;;6299484;22;20045;-82
2024/01/04 06:53:59;;;;;;;2.92;1.27;;;6.40;99.90;;;;;;6300040;22;20296;-82
2024/01/04 06:56:25;;;;;;;3.97;1.33;;;6.40;99.90;;;;;;6302236;22;20015;-82
2024/01/04 06:58:50;;;;;;;3.38;1.35;;;6.40;99.90;;;;;;6302321;22;20512;-82
2024/01/04 07:01:19;;;;;;;2.00;1.08;;;6.30;99.90;;;;;;6299852;22;20030;-82
2024/01/04 07:03:46;;;;;;;1.23;1.10;;;6.40;99.90;;;;;;6299776;22;20324;-82
2024/01/04 07:06:13;;;;;;;2.78;1.55;;;6.30;99.90;;;;;;6299950;22;20046;-81
2024/01/04 07:08:41;;;;;;;7.45;2.00;;;6.40;99.90;;;;;;6300608;22;20019;-82
2024/01/04 07:11:14;;;;;;;3.25;1.20;;;6.30;99.90;;;;;;6300280;22;20047;-82
2024/01/04 07:13:47;;;;;;;3.33;1.40;;;6.30;99.90;;;;;;6276560;22;20498;-82
2024/01/04 07:16:13;;;;;;;2.67;1.08;;;6.30;99.90;;;;;;6301872;22;20047;-83
2024/01/04 07:18:39;;;;;;;2.63;1.20;;;6.20;99.90;;;;;;6276006;22;20022;-82
2024/01/04 07:21:05;;;;;;;3.50;1.30;;;6.30;99.90;;;;;;6275835;22;20057;-83
2024/01/04 07:23:31;;;;;;;2.88;1.75;;;6.30;99.90;;;;;;6302209;22;20366;-82
2024/01/04 07:25:57;;;;;;;1.83;1.40;;;6.30;99.90;;;;;;6275942;22;20019;-82
2024/01/04 07:28:22;;;;;;;1.30;1.08;;;6.40;99.90;;;;;;6301416;22;20113;-82
2024/01/04 07:30:48;;;;;;;4.85;1.25;;;6.30;99.90;;;;;;6301769;22;20086;-82
2024/01/04 07:33:15;;;;;;;4.30;0.90;;;6.40;99.90;;;;;;6275516;22;20023;-83
2024/01/04 07:35:41;;;;;;;2.45;1.38;;;6.40;99.90;;;;;;6275698;22;20054;-83
2024/01/04 07:38:06;;;;;;;7.10;1.42;;;6.40;99.90;;;;;;6275654;22;20011;-82
2024/01/04 07:40:32;;;;;;;3.38;1.40;;;6.40;99.90;;;;;;6275577;22;20446;-82
2024/01/04 07:42:58;;;;;;;6.95;1.70;;;6.40;99.90;;;;;;6301628;22;20426;-85
2024/01/04 07:45:23;;;;;;;3.25;1.30;;;6.40;99.90;;;;;;6301253;22;20091;-83
2024/01/04 07:47:49;;;;;;;2.88;1.40;;;6.40;99.90;;;;;;6301532;22;20011;-85
2024/01/04 07:50:15;;;;;;;6.38;1.63;;;6.40;99.90;;;;;;6303486;22;20025;-83
2024/01/04 07:52:40;;;;;;;4.57;1.48;;;6.30;99.90;;;;;;6302095;22;20015;-84
2024/01/04 07:55:07;;;;;;;3.65;1.10;;;6.40;99.90;;;;;;6275912;22;20015;-84
2024/01/04 07:57:32;;;;;;;2.90;1.20;;;6.40;99.90;;;;;;6302077;22;20019;-84
2024/01/04 07:59:58;;;;;;;4.97;1.40;;;6.30;99.90;;;;;;6303725;22;20011;-84
2024/01/04 08:02:25;;;;;;;3.55;1.20;;;6.30;99.90;;;;;;6301661;22;20019;-83
2024/01/04 08:04:53;;;;;;;1.45;1.25;;;6.40;99.90;;;;;;6301417;22;20026;-84
2024/01/04 08:07:18;;;;;;;4.03;1.40;;;6.30;99.90;;;;;;6301551;22;20018;-83
2024/01/04 08:09:44;;;;;;;7.22;2.13;;;6.30;99.90;;;;;;6301769;22;20030;-83
2024/01/04 08:12:12;;;;;;;4.68;1.67;;;6.20;99.90;;;;;;6301618;22;20022;-83
2024/01/04 08:14:38;;;;;;;6.68;1.50;;;6.30;99.90;;;;;;6301201;22;20106;-83
2024/01/04 08:17:04;;;;;;;28.33;3.67;;;6.30;99.90;;;;;;6299895;22;20023;-83
2024/01/04 08:19:30;;;;;;;4.95;1.58;;;6.30;99.90;;;;;;6301389;22;20046;-83
2024/01/04 08:21:56;;;;;;;6.95;1.80;;;6.30;99.90;;;;;;6300977;22;20015;-81
2024/01/04 08:24:21;;;;;;;2.47;1.45;;;6.30;99.90;;;;;;6301145;22;20082;-83
2024/01/04 08:26:47;;;;;;;3.90;1.65;;;6.30;99.90;;;;;;6301772;22;20022;-78
2024/01/04 08:29:13;;;;;;;6.30;1.60;;;6.30;99.90;;;;;;6301835;22;20293;-82
2024/01/04 08:31:38;;;;;;;2.97;1.55;;;6.30;99.90;;;;;;6301634;22;20086;-81
2024/01/04 08:34:04;;;;;;;2.13;1.40;;;6.30;99.90;;;;;;6301766;22;20072;-81
2024/01/04 08:36:30;;;;;;;7.07;1.38;;;6.30;99.90;;;;;;6301860;22;20019;-81
2024/01/04 08:38:56;;;;;;;4.18;1.40;;;6.30;99.90;;;;;;6301428;22;20412;-81
2024/01/04 08:41:22;;;;;;;3.17;1.55;;;6.30;99.90;;;;;;6301750;22;20023;-81
2024/01/04 08:43:47;;;;;;;1.42;1.25;;;6.30;99.90;;;;;;6301829;22;20115;-81
2024/01/04 08:46:13;;;;;;;5.05;1.75;;;6.40;99.90;;;;;;6301493;22;20015;-81
2024/01/04 08:48:39;;;;;;;1.88;1.50;;;6.40;99.90;;;;;;6301686;22;20427;-81
2024/01/04 08:51:04;;;;;;;2.83;1.60;;;6.30;99.90;;;;;;6276187;22;20096;-81
2024/01/04 08:53:30;;;;;;;6.95;1.73;;;6.40;99.90;;;;;;6302236;22;20069;-81
2024/01/04 08:55:56;;;;;;;3.33;1.23;;;6.40;99.90;;;;;;6302359;22;20007;-82
2024/01/04 08:58:21;;;;;;;4.28;1.45;;;6.40;99.90;;;;;;6302076;22;20011;-82
2024/01/04 09:00:47;;;;;;;2.67;1.63;;;6.40;99.90;;;;;;6301784;22;20015;-82
2024/01/04 09:03:13;;;;;;;5.63;1.50;;;6.40;99.90;;;;;;6303610;22;20027;-82
2024/01/04 09:05:38;;;;;;;2.63;1.40;;;6.40;99.90;;;;;;6275901;22;20042;-82
2024/01/04 09:08:05;;;;;;;5.35;2.70;;;6.40;99.90;;;;;;6301309;22;20011;-82
2024/01/04 09:10:31;;;;;;;3.15;1.23;;;6.40;99.90;;;;;;6301420;22;20019;-82
2024/01/04 09:12:57;;;;;;;3.58;1.40;;;6.40;99.90;;;;;;6301342;22;20120;-81
2024/01/04 09:15:22;;;;;;;2.92;1.35;;;6.40;99.90;;;;;;6300984;22;20098;-82
2024/01/04 09:17:48;;;;;;;2.83;1.40;;;6.40;99.90;;;;;;6275647;22;20340;-82
2024/01/04 09:20:15;;;;;;;2.33;1.50;;;6.40;99.90;;;;;;6301204;22;20042;-82
2024/01/04 09:22:41;;;;;;;4.53;2.08;;;6.50;99.90;;;;;;6300677;22;20015;-81
2024/01/04 09:25:07;;;;;;;2.47;1.70;;;6.40;99.90;;;;;;6301133;22;20160;-82
2024/01/04 09:27:32;;;;;;;2.38;1.50;;;6.40;99.90;;;;;;6301013;22;20025;-81
2024/01/04 09:29:58;;;;;;;4.85;1.75;;;6.40;99.90;;;;;;6300817;22;20034;-82
2024/01/04 09:32:24;;;;;;;2.55;1.40;;;6.50;99.90;;;;;;6275136;22;20022;-82
2024/01/04 09:34:50;;;;;;;6.20;1.55;;;6.40;99.90;;;;;;6301115;22;20334;-81
2024/01/04 09:37:16;;;;;;;5.28;1.80;;;6.50;99.90;;;;;;6300720;22;20018;-80
2024/01/04 09:39:42;;;;;;;3.55;1.33;;;6.40;99.90;;;;;;6300965;22;20041;-80
2024/01/04 09:42:09;;;;;;;4.88;1.70;;;6.50;99.90;;;;;;6301023;22;20019;-80
2024/01/04 09:44:38;;;;;;;4.90;1.60;;;6.50;99.90;;;;;;6300726;22;20019;-80
2024/01/04 09:47:10;;;;;;;3.58;1.42;;;6.60;99.90;;;;;;6275209;22;20037;-81
2024/01/04 09:49:39;;;;;;;1.60;1.50;;;6.50;99.90;;;;;;6300970;22;20023;-80
2024/01/04 09:52:05;;;;;;;3.25;1.50;;;6.50;99.90;;;;;;6300714;22;20053;-81
2024/01/04 09:54:32;;;;;;;4.53;1.83;;;6.50;99.90;;;;;;6274893;22;20030;-81
2024/01/04 09:56:59;;;;;;;2.10;1.40;;;6.50;99.90;;;;;;6300749;22;20049;-81
2024/01/04 09:59:25;;;;;;;8.15;1.38;;;6.50;99.90;;;;;;6300361;22;20019;-81
2024/01/04 10:01:52;;;;;;;2.42;1.50;;;6.50;99.90;;;;;;6300915;22;20030;-80
2024/01/04 10:04:17;;;;;;;4.63;1.45;;;6.50;99.90;;;;;;6300281;22;20391;-80
2024/01/04 10:06:45;;;;;;;5.43;1.33;;;6.50;99.90;;;;;;6274983;22;20027;-82
2024/01/04 10:09:32;;;;;;;1.85;1.40;;;6.50;99.90;;;;;;6300546;22;20605;-82
2024/01/04 10:12:05;;;;;;;2.58;1.35;;;6.40;99.90;;;;;;6300534;22;20090;-81
2024/01/04 10:14:32;;;;;;;3.72;1.30;;;6.40;99.90;;;;;;6300425;22;20019;-81
2024/01/04 10:17:01;;;;;;;2.30;1.30;;;6.50;99.90;;;;;;6300815;22;20015;-81
2024/01/04 10:19:28;;;;;;;1.27;1.15;;;6.50;99.90;;;;;;6300830;22;20374;-82
2024/01/04 10:22:01;;;;;;;2.92;1.25;;;6.50;99.90;;;;;;6300376;22;20310;-81
2024/01/04 10:24:29;;;;;;;1.13;1.08;;;6.50;99.90;;;;;;6302357;22;20046;-81
2024/01/04 10:26:57;;;;;;;9.63;1.30;;;6.50;99.90;;;;;;6300439;22;20099;-81
2024/01/04 10:29:26;;;;;;;8.13;2.33;;;6.50;99.90;;;;;;6275658;22;20051;-81
2024/01/04 10:32:03;;;;;;;3.03;1.50;;;6.50;99.90;;;;;;6300790;22;20026;-82
2024/01/04 10:34:31;;;;;;;5.53;1.60;;;6.50;99.90;;;;;;6300494;22;20023;-83
2024/01/04 10:37:14;;;;;;;2.63;1.25;;;6.50;99.90;;;;;;6300457;22;20391;-82
2024/01/04 10:39:56;;;;;;;2.97;1.20;;;6.50;99.90;;;;;;6300533;22;20098;-81
2024/01/04 10:42:22;;;;;;;3.83;1.98;;;6.50;99.90;;;;;;6300299;22;20058;-82
2024/01/04 10:44:54;;;;;;;3.70;1.15;;;6.60;99.90;;;;;;6300676;22;20026;-82
2024/01/04 10:47:20;;;;;;;;;;;6.50;99.90;;;;;;6301057;22;20046;-82
2024/01/04 10:49:47;;;;;;;5.65;1.50;;;6.50;99.90;;;;;;6274762;22;20504;-82
2024/01/04 10:52:15;;;;;;;1.30;1.20;;;6.50;99.90;;;;;;6274769;22;20019;-81
2024/01/04 10:54:44;;;;;;;5.30;1.67;;;6.50;99.90;;;;;;6300598;22;20015;-82
2024/01/04 10:57:11;;;;;;;2.13;1.17;;;6.60;99.90;;;;;;6300656;22;20023;-81
2024/01/04 10:59:37;;;;;;;5.63;1.30;;;6.60;99.90;;;;;;6300622;22;20026;-82
2024/01/04 11:02:03;;;;;;;8.10;1.83;;;6.60;99.90;;;;;;6300610;22;20042;-81
2024/01/04 11:04:30;;;;;;;4.90;1.33;;;6.60;99.90;;;;;;6300087;22;20335;-80
2024/01/04 11:07:00;;;;;;;4.47;2.00;;;6.60;99.90;;;;;;6300676;22;20022;-79
2024/01/04 11:09:26;;;;;;;2.50;1.40;;;6.50;99.90;;;;;;6302275;22;20011;-81
2024/01/04 11:11:53;;;;;;;6.13;1.75;;;6.60;99.90;;;;;;6300629;22;20335;-81
2024/01/04 11:14:20;;;;;;;1.45;1.20;;;6.50;99.90;;;;;;6300644;22;20026;-81
2024/01/04 11:17:04;;;;;;;2.40;1.30;;;6.60;99.90;;;;;;6300834;22;20023;-82
2024/01/04 11:19:46;;;;;;;1.83;1.13;;;6.50;99.90;;;;;;6300838;22;20044;-81
2024/01/04 11:22:34;;;;;;;8.18;1.85;;;6.50;99.90;;;;;;6300842;22;20117;-81
2024/01/04 11:25:11;;;;;;;6.60;1.35;;;6.50;99.90;;;;;;6300751;22;20055;-81
2024/01/04 11:27:37;;;;;;;5.15;1.98;;;6.60;99.90;;;;;;6300880;22;20242;-81
2024/01/04 11:30:04;;;;;;;3.38;1.40;;;6.60;99.90;;;;;;6300968;22;20023;-82
2024/01/04 11:32:31;;;;;;;2.25;1.38;;;6.60;99.90;;;;;;6300919;22;20015;-81
2024/01/04 11:34:57;;;;;;;4.18;1.15;;;6.60;99.90;;;;;;6300994;22;20019;-81
2024/01/04 11:37:24;;;;;;;3.03;1.50;;;6.60;99.90;;;;;;6300777;22;20111;-81
2024/01/04 11:40:03;;;;;;;2.33;1.33;;;6.60;99.90;;;;;;6275010;22;20042;-81
2024/01/04 11:42:33;;;;;;;3.22;1.60;;;6.50;99.90;;;;;;6301075;22;20015;-81
2024/01/04 11:45:00;;;;;;;8.18;1.40;;;6.60;99.90;;;;;;6301104;22;20047;-81
2024/01/04 11:47:26;;;;;;;8.63;1.50;;;6.60;99.90;;;;;;6301158;22;20023;-81
2024/01/04 11:49:59;;;;;;;2.38;1.35;;;6.50;99.90;;;;;;6275254;22;20015;-82
2024/01/04 11:52:28;;;;;;;;;;;6.60;99.90;;;;;;6301188;22;20624;-82
2024/01/04 11:54:56;;;;;;;6.18;1.55;;;6.60;99.90;;;;;;6300400;22;20295;-79
2024/01/04 11:57:23;;;;;;;2.45;1.02;;;6.50;99.90;;;;;;6302398;22;20019;-78
2024/01/04 11:59:50;;;;;;;4.97;1.48;;;6.60;99.90;;;;;;6301327;22;20117;-78
2024/01/04 12:02:20;;;;;;;1.55;1.20;;;6.60;99.90;;;;;;6301852;22;20054;-79
2024/01/04 12:04:47;;;;;;;1.58;1.45;;;6.50;99.90;;;;;;6303949;22;20019;-78
2024/01/04 12:07:14;;;;;;;2.67;1.38;;;6.60;99.90;;;;;;6301906;22;20023;-78
2024/01/04 12:09:43;;;;;;;3.13;1.20;;;6.60;99.90;;;;;;6303576;22;20043;-78
2024/01/04 12:12:09;;;;;;;4.95;1.90;;;6.50;99.90;;;;;;6302267;22;20022;-79
2024/01/04 12:14:35;;;;;;;7.25;1.70;;;6.50;99.90;;;;;;6302127;22;20023;-79
2024/01/04 12:17:01;;;;;;;3.03;1.40;;;6.50;99.90;;;;;;6302155;22;20043;-77
2024/01/04 12:19:27;;;;;;;2.78;1.35;;;6.50;99.90;;;;;;6302274;22;20108;-78
2024/01/04 12:21:53;;;;;;;2.35;1.23;;;6.50;99.90;;;;;;6303999;22;20034;-78
2024/01/04 12:24:20;;;;;;;3.53;1.48;;;6.60;99.90;;;;;;6303356;22;20019;-79
2024/01/04 12:26:46;;;;;;;6.35;1.75;;;6.60;99.90;;;;;;6301953;22;20289;-80
2024/01/04 12:29:11;;;;;;;8.63;2.28;;;6.60;99.90;;;;;;6302163;22;20301;-80
2024/01/04 12:31:43;;;;;;;4.00;1.30;;;6.60;99.90;;;;;;6303684;22;20419;-80
2024/01/04 12:34:10;;;;;;;2.00;1.27;;;6.60;99.90;;;;;;6301882;22;20019;-80
2024/01/04 12:36:36;;;;;;;3.50;1.40;;;6.60;99.90;;;;;;6303812;22;20485;-81
2024/01/04 12:39:09;;;;;;;3.33;1.00;;;6.60;99.90;;;;;;6301623;22;20015;-81
2024/01/04 12:41:37;;;;;;;5.45;1.85;;;6.50;99.90;;;;;;6302120;22;20439;-81
2024/01/04 12:44:04;;;;;;;2.00;1.20;;;6.60;99.90;;;;;;6302095;22;20058;-80
2024/01/04 12:46:33;;;;;;;1.48;1.35;;;6.60;99.90;;;;;;6301892;22;20100;-81
2024/01/04 12:49:11;;;;;;;1.85;1.40;;;6.60;99.90;;;;;;6301873;22;20092;-81
2024/01/04 12:51:42;;;;;;;3.90;1.35;;;6.60;99.90;;;;;;6302008;22;20479;-80
2024/01/04 12:54:09;;;;;;;2.65;1.63;;;6.60;99.90;;;;;;6275912;22;20159;-80
2024/01/04 12:56:35;;;;;;;2.75;1.20;;;6.70;99.90;;;;;;6301892;22;20016;-81
2024/01/04 12:59:03;;;;;;;2.13;1.25;;;6.60;99.90;;;;;;6301648;22;20017;-81
2024/01/04 13:01:29;;;;;;;5.50;2.97;;;6.60;99.90;;;;;;6275921;22;20018;-81